Collarenebri Airport


Codes: YCBR/CRB
Name: Collarenebri Airport
City:
Country: Australia
Elevation: 152 ft.

Photos at Collarenebri Airport


   Photos courtesy of SpottingLog. You can add your own sightings and photos by signing up for a free trial today.



No photos found.

Weather at Collarenebri Airport


Time (UTC)DescriptionTempratureWindCloud coverageVisibilityPressureHumidity
23-May-2024 21:00Broken Clouds10°C4 mph, E84%10000m1025hPa59%
24-May-2024 00:00Overcast Clouds12°C4 mph, NE85%10000m1025hPa53%
24-May-2024 03:00Overcast Clouds17°C2 mph, NE95%10000m1024hPa43%
24-May-2024 06:00Overcast Clouds20°C2 mph, S100%10000m1023hPa38%
24-May-2024 09:00Overcast Clouds17°C7 mph, S99%10000m1024hPa44%
24-May-2024 12:00Broken Clouds14°C7 mph, SE74%10000m1025hPa51%
24-May-2024 15:00Overcast Clouds14°C4 mph, SE100%10000m1024hPa54%
24-May-2024 18:00Overcast Clouds13°C4 mph, E100%10000m1024hPa66%
24-May-2024 21:00Overcast Clouds13°C7 mph, E95%10000m1025hPa71%
25-May-2024 00:00Overcast Clouds19°C7 mph, NE98%10000m1026hPa51%
25-May-2024 03:00Overcast Clouds22°C4 mph, N99%10000m1024hPa40%
25-May-2024 06:00Broken Clouds22°C2 mph, NE58%10000m1022hPa37%
25-May-2024 09:00Broken Clouds17°C4 mph, SE77%10000m1024hPa50%
25-May-2024 12:00Scattered Clouds16°C7 mph, SE40%10000m1024hPa59%
25-May-2024 15:00Clear Sky14°C7 mph, SE0%10000m1024hPa65%
25-May-2024 18:00Clear Sky13°C7 mph, E0%10000m1024hPa66%
25-May-2024 21:00Clear Sky12°C4 mph, E0%10000m1025hPa68%
26-May-2024 00:00Clear Sky19°C4 mph, NE0%10000m1026hPa50%
26-May-2024 03:00Clear Sky22°C2 mph, NW0%10000m1023hPa43%
26-May-2024 06:00Clear Sky22°C4 mph, SW0%10000m1022hPa38%
26-May-2024 09:00Clear Sky17°C7 mph, S3%10000m1023hPa52%
26-May-2024 12:00Clear Sky16°C7 mph, S2%10000m1024hPa58%
26-May-2024 15:00Clear Sky14°C7 mph, S0%10000m1023hPa64%
26-May-2024 18:00Clear Sky13°C7 mph, SE0%10000m1023hPa68%
26-May-2024 21:00Clear Sky12°C7 mph, SE0%10000m1025hPa70%
27-May-2024 00:00Clear Sky19°C7 mph, S0%10000m1025hPa50%
27-May-2024 03:00Clear Sky21°C7 mph, S0%10000m1023hPa35%
27-May-2024 06:00Clear Sky21°C9 mph, S0%10000m1022hPa35%
27-May-2024 09:00Clear Sky16°C9 mph, S0%10000m1024hPa50%
27-May-2024 12:00Clear Sky14°C9 mph, S0%10000m1025hPa53%
27-May-2024 15:00Clear Sky12°C7 mph, S0%10000m1024hPa57%
27-May-2024 18:00Clear Sky11°C7 mph, SE0%10000m1024hPa60%
27-May-2024 21:00Clear Sky10°C4 mph, SE0%10000m1025hPa65%
28-May-2024 00:00Clear Sky17°C2 mph, E0%10000m1026hPa44%
28-May-2024 03:00Clear Sky21°C2 mph, NW0%10000m1023hPa34%
28-May-2024 06:00Clear Sky22°C0 mph, NW0%10000m1023hPa33%
28-May-2024 09:00Clear Sky17°C4 mph, S0%10000m1024hPa44%
28-May-2024 12:00Clear Sky15°C7 mph, SE0%10000m1024hPa48%
28-May-2024 15:00Clear Sky14°C7 mph, E0%10000m1024hPa52%
28-May-2024 18:00Clear Sky13°C9 mph, E2%10000m1024hPa61%